createdAt,value
2017-09-23T00:00:23.457Z,83.42
2017-09-23T00:01:23.404Z,83.81
2017-09-23T00:02:23.359Z,83.90
2017-09-23T00:03:23.344Z,83.62
2017-09-23T00:04:23.335Z,82.95
2017-09-23T00:05:23.303Z,83.04
2017-09-23T00:06:23.284Z,83.04
2017-09-23T00:07:23.264Z,83.33
2017-09-23T00:08:23.255Z,83.37
2017-09-23T00:09:23.244Z,83.14
2017-09-23T00:10:23.197Z,83.18
2017-09-23T00:11:23.190Z,83.37
2017-09-23T00:12:23.260Z,83.23
2017-09-23T00:13:23.154Z,83.14
2017-09-23T00:14:23.146Z,83.18
2017-09-23T00:15:23.114Z,83.09
2017-09-23T00:16:23.137Z,82.61
2017-09-23T00:17:23.081Z,82.61
2017-09-23T00:18:23.061Z,82.99
2017-09-23T00:19:23.048Z,82.90
2017-09-23T00:20:23.039Z,82.90
2017-09-23T00:21:23.031Z,82.70
2017-09-23T00:22:22.974Z,82.99
2017-09-23T00:23:22.969Z,82.90
2017-09-23T00:24:22.946Z,82.51
2017-09-23T00:25:22.927Z,82.99
2017-09-23T00:26:22.946Z,82.32
2017-09-23T00:27:22.896Z,82.32
2017-09-23T00:28:22.881Z,82.32
2017-09-23T00:29:22.866Z,82.23
2017-09-23T00:30:22.839Z,82.23
2017-09-23T00:31:22.867Z,82.23
2017-09-23T00:32:22.806Z,82.23
2017-09-23T00:33:22.837Z,82.14
2017-09-23T00:34:22.768Z,82.32
2017-09-23T00:35:22.795Z,82.51
2017-09-23T00:36:22.736Z,82.51
2017-09-23T00:37:22.715Z,82.61
2017-09-23T00:38:22.747Z,82.80
2017-09-23T00:39:22.668Z,82.61
2017-09-23T00:40:22.652Z,82.80
2017-09-23T00:41:22.684Z,82.70
2017-09-23T00:42:22.616Z,82.23
2017-09-23T00:43:22.602Z,82.37
2017-09-23T00:44:22.599Z,82.37
2017-09-23T00:45:22.571Z,82.56
2017-09-23T00:46:22.571Z,82.37
2017-09-23T00:47:22.547Z,82.08
2017-09-23T00:48:22.537Z,82.27
2017-09-23T00:49:22.485Z,82.18
2017-09-23T00:50:22.470Z,82.46
2017-09-23T00:51:22.446Z,82.65
2017-09-23T00:52:22.430Z,82.56
2017-09-23T00:53:22.414Z,82.27
2017-09-23T00:54:22.397Z,82.27
2017-09-23T00:55:22.377Z,82.27
2017-09-23T00:56:22.375Z,82.27
2017-09-23T00:57:22.336Z,82.27
2017-09-23T00:58:22.319Z,82.27
2017-09-23T00:59:22.302Z,82.79
2017-09-23T01:00:22.296Z,82.50
2017-09-23T01:01:22.274Z,82.60
2017-09-23T01:02:22.244Z,82.31
2017-09-23T01:03:22.235Z,82.31
2017-09-23T01:04:22.219Z,82.21
2017-09-23T01:05:22.208Z,82.79
2017-09-23T01:06:22.183Z,82.31
2017-09-23T01:07:22.159Z,82.60
2017-09-23T01:08:22.144Z,82.31
2017-09-23T01:09:22.197Z,82.50
2017-09-23T01:10:22.104Z,82.60
2017-09-23T01:11:22.080Z,82.89
2017-09-23T01:12:22.067Z,82.21
2017-09-23T01:13:22.066Z,82.31
2017-09-23T01:14:22.019Z,82.31
2017-09-23T01:15:22.024Z,82.41
2017-09-23T01:16:22.004Z,82.50
2017-09-23T01:17:21.982Z,82.50
2017-09-23T01:18:21.978Z,82.69
2017-09-23T01:19:21.930Z,83.03
2017-09-23T01:20:21.965Z,83.13
2017-09-23T01:21:21.909Z,82.98
2017-09-23T01:22:21.937Z,83.03
2017-09-23T01:23:21.877Z,82.75
2017-09-23T01:24:21.861Z,82.75
2017-09-23T01:25:21.865Z,83.03
2017-09-23T01:26:21.816Z,83.22
2017-09-23T01:27:21.856Z,82.93
2017-09-23T01:28:21.783Z,82.98
2017-09-23T01:29:21.757Z,83.03
2017-09-23T01:30:21.735Z,82.98
2017-09-23T01:31:21.715Z,83.17
2017-09-23T01:32:21.708Z,82.98
2017-09-23T01:33:21.848Z,82.98
2017-09-23T01:34:21.670Z,82.89
2017-09-23T01:35:21.660Z,83.26
2017-09-23T01:36:21.670Z,82.89
2017-09-23T01:37:21.627Z,82.93
2017-09-23T01:38:21.584Z,82.98
2017-09-23T01:39:21.584Z,82.98
2017-09-23T01:40:21.565Z,82.89
2017-09-23T01:41:21.611Z,82.93
2017-09-23T01:42:21.542Z,83.55
2017-09-23T01:43:21.569Z,83.03
2017-09-23T01:44:21.489Z,83.13
2017-09-23T01:45:21.468Z,83.26
2017-09-23T01:46:21.487Z,83.36
2017-09-23T01:47:21.432Z,83.36
2017-09-23T01:48:21.406Z,83.41
2017-09-23T01:49:21.495Z,83.36
2017-09-23T01:50:21.398Z,82.93
2017-09-23T01:51:21.358Z,83.03
2017-09-23T01:52:21.375Z,83.22
2017-09-23T01:53:21.320Z,83.22
2017-09-23T01:54:21.310Z,83.22
2017-09-23T01:55:21.283Z,83.03
2017-09-23T01:56:21.307Z,83.41
2017-09-23T01:57:21.241Z,83.51
2017-09-23T01:58:21.276Z,83.41
2017-09-23T01:59:21.225Z,83.61
2017-09-23T02:00:21.200Z,83.70
2017-09-23T02:01:21.213Z,83.61
2017-09-23T02:02:21.171Z,83.51
2017-09-23T02:03:21.179Z,83.61
2017-09-23T02:04:21.114Z,83.51
2017-09-23T02:05:21.153Z,83.89
2017-09-23T02:06:21.091Z,83.51
2017-09-23T02:07:21.064Z,83.89
2017-09-23T02:08:21.144Z,83.70
2017-09-23T02:09:21.021Z,83.51
2017-09-23T02:10:21.017Z,83.03
2017-09-23T02:11:20.997Z,82.93
2017-09-23T02:12:20.980Z,83.17
2017-09-23T02:13:20.951Z,83.07
2017-09-23T02:14:20.945Z,83.32
2017-09-23T02:15:20.914Z,82.98
2017-09-23T02:16:20.956Z,83.36
2017-09-23T02:17:20.882Z,83.36
2017-09-23T02:18:20.874Z,83.03
2017-09-23T02:19:20.858Z,83.13
2017-09-23T02:20:20.829Z,83.22
2017-09-23T02:21:20.802Z,82.84
2017-09-23T02:22:20.805Z,83.32
2017-09-23T02:23:20.820Z,82.89
2017-09-23T02:24:20.755Z,83.36
2017-09-23T02:25:20.727Z,82.93
2017-09-23T02:26:20.722Z,83.36
2017-09-23T02:27:20.725Z,83.17
2017-09-23T02:28:20.691Z,83.26
2017-09-23T02:29:20.683Z,83.17
2017-09-23T02:30:20.641Z,83.17
2017-09-23T02:31:20.644Z,83.07
2017-09-23T02:32:20.605Z,83.74
2017-09-23T02:33:20.582Z,83.80
2017-09-23T02:34:20.580Z,83.80
2017-09-23T02:35:20.593Z,83.51
2017-09-23T02:36:20.539Z,83.32
2017-09-23T02:37:20.511Z,83.61
2017-09-23T02:38:20.497Z,83.32
2017-09-23T02:39:20.523Z,83.70
2017-09-23T02:40:20.463Z,83.61
2017-09-23T02:41:20.461Z,83.70
2017-09-23T02:42:20.492Z,83.51
2017-09-23T02:43:20.410Z,83.36
2017-09-23T02:44:20.385Z,83.74
2017-09-23T02:45:20.372Z,83.93
2017-09-23T02:46:20.354Z,84.03
2017-09-23T02:47:20.357Z,83.84
2017-09-23T02:48:20.324Z,83.74
2017-09-23T02:49:20.320Z,83.26
2017-09-23T02:50:20.308Z,83.17
2017-09-23T02:51:20.264Z,83.07
2017-09-23T02:52:20.302Z,83.17
2017-09-23T02:53:20.244Z,83.17
2017-09-23T02:54:20.212Z,84.03
2017-09-23T02:55:20.186Z,83.07
2017-09-23T02:56:20.174Z,83.36
2017-09-23T02:57:20.167Z,83.26
2017-09-23T02:58:20.143Z,83.07
2017-09-23T02:59:20.118Z,83.26
2017-09-23T03:00:20.151Z,83.26
2017-09-23T03:01:20.112Z,83.17
2017-09-23T03:02:20.144Z,83.07
2017-09-23T03:03:20.072Z,83.07
2017-09-23T03:04:20.037Z,83.74
2017-09-23T03:05:20.012Z,84.03
2017-09-23T03:06:20.027Z,83.74
2017-09-23T03:07:20.024Z,83.55
2017-09-23T03:08:19.955Z,83.84
2017-09-23T03:09:19.934Z,83.45
2017-09-23T03:10:19.917Z,83.74
2017-09-23T03:11:19.896Z,84.31
2017-09-23T03:12:19.909Z,84.41
2017-09-23T03:13:19.877Z,84.12
2017-09-23T03:14:19.846Z,84.03
2017-09-23T03:15:19.835Z,83.93
2017-09-23T03:16:19.797Z,84.08
2017-09-23T03:17:19.791Z,84.08
2017-09-23T03:18:19.858Z,84.08
2017-09-23T03:19:19.759Z,83.98
2017-09-23T03:20:19.732Z,84.56
2017-09-23T03:21:19.773Z,84.46
2017-09-23T03:22:19.703Z,84.27
2017-09-23T03:23:19.673Z,84.84
2017-09-23T03:24:19.695Z,85.03
2017-09-23T03:25:19.639Z,85.03
2017-09-23T03:26:19.628Z,84.94
2017-09-23T03:27:19.665Z,84.94
2017-09-23T03:28:19.575Z,84.84
2017-09-23T03:29:19.705Z,84.94
2017-09-23T03:30:19.547Z,85.03
2017-09-23T03:31:19.523Z,84.94
2017-09-23T03:32:19.582Z,84.84
2017-09-23T03:33:19.502Z,84.94
2017-09-23T03:34:19.463Z,84.94
2017-09-23T03:35:19.464Z,85.03
2017-09-23T03:36:19.451Z,85.22
2017-09-23T03:37:19.420Z,85.22
2017-09-23T03:38:19.469Z,84.94
2017-09-23T03:39:19.385Z,84.75
2017-09-23T03:40:19.366Z,84.84
2017-09-23T03:41:19.362Z,85.03
2017-09-23T03:42:19.397Z,85.13
2017-09-23T03:43:19.404Z,84.84
2017-09-23T03:44:19.297Z,84.94
2017-09-23T03:45:19.281Z,85.03
2017-09-23T03:46:19.285Z,85.03
2017-09-23T03:47:19.230Z,84.08
2017-09-23T03:48:19.270Z,84.84
2017-09-23T03:49:19.198Z,84.84
2017-09-23T03:50:19.185Z,85.03
2017-09-23T03:51:19.161Z,84.56
2017-09-23T03:52:19.164Z,84.65
2017-09-23T03:53:19.177Z,84.84
2017-09-23T03:54:19.162Z,84.27
2017-09-23T03:55:19.096Z,84.94
2017-09-23T03:56:19.084Z,84.84
2017-09-23T03:57:19.073Z,84.17
2017-09-23T03:58:19.091Z,84.27
2017-09-23T03:59:19.016Z,84.65
2017-09-23T04:00:18.988Z,84.46
2017-09-23T04:01:18.978Z,84.65
2017-09-23T04:02:18.998Z,84.36
2017-09-23T04:03:18.949Z,84.17
2017-09-23T04:04:18.938Z,84.08
2017-09-23T04:05:18.955Z,85.32
2017-09-23T04:06:18.917Z,84.08
2017-09-23T04:07:18.860Z,84.65
2017-09-23T04:08:18.859Z,84.36
2017-09-23T04:09:18.828Z,84.36
2017-09-23T04:10:18.817Z,84.56
2017-09-23T04:11:18.797Z,84.46
2017-09-23T04:12:18.775Z,85.22
2017-09-23T04:13:18.761Z,84.36
2017-09-23T04:14:18.760Z,84.65
2017-09-23T04:15:18.766Z,84.46
2017-09-23T04:16:18.714Z,85.03
2017-09-23T04:17:18.682Z,84.84
2017-09-23T04:18:18.667Z,85.03
2017-09-23T04:19:18.652Z,85.13
2017-09-23T04:20:18.638Z,84.65
2017-09-23T04:21:18.606Z,84.84
2017-09-23T04:22:18.591Z,84.94
2017-09-23T04:23:18.565Z,85.03
2017-09-23T04:24:18.576Z,84.65
2017-09-23T04:25:18.592Z,84.94
2017-09-23T04:26:18.516Z,84.84
2017-09-23T04:27:18.499Z,84.75
2017-09-23T04:28:18.509Z,84.84
2017-09-23T04:29:19.142Z,84.84
2017-09-23T04:30:18.452Z,84.94
2017-09-23T04:31:18.451Z,85.03
2017-09-23T04:32:18.402Z,84.94
2017-09-23T04:33:18.383Z,84.84
2017-09-23T04:34:18.366Z,84.84
2017-09-23T04:35:18.345Z,84.84
2017-09-23T04:36:18.335Z,84.56
2017-09-23T04:37:18.320Z,84.65
2017-09-23T04:38:18.287Z,84.94
2017-09-23T04:39:18.272Z,84.94
2017-09-23T04:40:18.262Z,84.75
2017-09-23T04:41:18.237Z,84.75
2017-09-23T04:42:18.222Z,84.65
2017-09-23T04:43:18.195Z,84.84
2017-09-23T04:44:18.192Z,84.75
2017-09-23T04:45:18.170Z,84.56
2017-09-23T04:46:18.149Z,84.56
2017-09-23T04:47:18.176Z,84.75
2017-09-23T04:48:18.118Z,84.75
2017-09-23T04:49:18.098Z,84.84
2017-09-23T04:50:18.067Z,84.56
2017-09-23T04:51:18.056Z,84.84
2017-09-23T04:52:18.056Z,84.84
2017-09-23T04:53:18.019Z,84.84
2017-09-23T04:54:18.017Z,84.84
2017-09-23T04:55:17.975Z,84.84
2017-09-23T04:56:17.971Z,84.84
2017-09-23T04:57:18.037Z,84.84
2017-09-23T04:58:17.943Z,84.94
2017-09-23T04:59:17.913Z,84.84
2017-09-23T05:00:17.945Z,85.03
2017-09-23T05:01:17.881Z,84.94
2017-09-23T05:02:17.867Z,84.84
2017-09-23T05:03:17.846Z,84.56
2017-09-23T05:04:17.830Z,84.75
2017-09-23T05:05:17.912Z,84.56
2017-09-23T05:06:17.785Z,84.75
2017-09-23T05:07:17.820Z,84.75
2017-09-23T05:08:17.741Z,84.75
2017-09-23T05:09:17.748Z,84.75
2017-09-23T05:10:17.826Z,84.75
2017-09-23T05:11:17.698Z,84.65
2017-09-23T05:12:17.775Z,84.75
2017-09-23T05:13:17.672Z,84.65
2017-09-23T05:14:17.630Z,84.75
2017-09-23T05:15:17.621Z,84.75
2017-09-23T05:16:17.609Z,84.84
2017-09-23T05:17:17.572Z,84.84
2017-09-23T05:18:17.582Z,84.75
2017-09-23T05:19:17.545Z,84.75
2017-09-23T05:20:17.519Z,84.75
2017-09-23T05:21:17.560Z,84.75
2017-09-23T05:22:17.482Z,84.65
2017-09-23T05:23:17.467Z,84.65
2017-09-23T05:24:17.619Z,84.65
2017-09-23T05:25:17.451Z,84.65
2017-09-23T05:26:17.441Z,84.94
2017-09-23T05:27:17.410Z,84.75
2017-09-23T05:28:17.381Z,84.84
2017-09-23T05:29:17.373Z,85.22
2017-09-23T05:30:17.336Z,85.22
2017-09-23T05:31:17.319Z,84.84
2017-09-23T05:32:17.300Z,84.56
2017-09-23T05:33:17.325Z,85.03
2017-09-23T05:34:17.264Z,85.08
2017-09-23T05:35:17.242Z,85.03
2017-09-23T05:36:17.233Z,85.17
2017-09-23T05:37:17.202Z,84.50
2017-09-23T05:38:17.196Z,84.56
2017-09-23T05:39:17.165Z,84.50
2017-09-23T05:40:17.159Z,84.50
2017-09-23T05:41:17.230Z,84.60
2017-09-23T05:42:17.131Z,84.12
2017-09-23T05:43:17.112Z,84.22
2017-09-23T05:44:17.295Z,84.41
2017-09-23T05:45:17.074Z,84.98
2017-09-23T05:46:17.043Z,84.31
2017-09-23T05:47:17.037Z,84.50
2017-09-23T05:48:17.001Z,85.08
2017-09-23T05:49:16.999Z,84.50
2017-09-23T05:50:16.971Z,84.31
2017-09-23T05:51:16.967Z,84.88
2017-09-23T05:52:17.002Z,84.50
2017-09-23T05:53:16.926Z,84.22
2017-09-23T05:54:16.946Z,84.88
2017-09-23T05:55:16.877Z,84.69
2017-09-23T05:56:16.864Z,84.69
2017-09-23T05:57:16.845Z,84.69
2017-09-23T05:58:16.834Z,84.41
2017-09-23T05:59:16.810Z,84.50
2017-09-23T06:00:16.789Z,85.08
2017-09-23T06:01:16.811Z,85.08
2017-09-23T06:02:16.774Z,84.88
2017-09-23T06:03:16.778Z,84.79
2017-09-23T06:04:16.720Z,85.08
2017-09-23T06:05:16.722Z,85.17
2017-09-23T06:06:16.673Z,84.92
2017-09-23T06:07:16.669Z,85.12
2017-09-23T06:08:16.649Z,84.45
2017-09-23T06:09:16.629Z,84.26
2017-09-23T06:10:16.595Z,84.31
2017-09-23T06:11:16.577Z,84.31
2017-09-23T06:12:16.582Z,85.08
2017-09-23T06:13:16.560Z,84.88
2017-09-23T06:14:16.535Z,84.88
2017-09-23T06:15:16.511Z,84.79
2017-09-23T06:16:16.538Z,85.02
2017-09-23T06:17:16.483Z,84.98
2017-09-23T06:18:16.454Z,85.12
2017-09-23T06:19:16.433Z,84.92
2017-09-23T06:20:16.434Z,84.92
2017-09-23T06:21:16.490Z,84.45
2017-09-23T06:22:16.388Z,84.31
2017-09-23T06:23:16.365Z,84.41
2017-09-23T06:24:16.449Z,84.41
2017-09-23T06:25:16.330Z,84.74
2017-09-23T06:26:16.310Z,84.45
2017-09-23T06:27:16.332Z,84.55
2017-09-23T06:28:16.272Z,84.16
2017-09-23T06:29:16.259Z,84.16
2017-09-23T06:30:16.289Z,84.36
2017-09-23T06:31:16.278Z,84.16
2017-09-23T06:32:16.201Z,84.16
2017-09-23T06:33:16.194Z,84.36
2017-09-23T06:34:16.268Z,84.07
2017-09-23T06:35:16.139Z,83.78
2017-09-23T06:36:16.170Z,83.88
2017-09-23T06:37:16.108Z,83.40
2017-09-23T06:38:16.119Z,83.50
2017-09-23T06:39:16.091Z,84.01
2017-09-23T06:40:16.051Z,83.16
2017-09-23T06:41:16.042Z,83.44
2017-09-23T06:42:16.015Z,82.97
2017-09-23T06:43:16.020Z,83.06
2017-09-23T06:44:15.978Z,83.06
2017-09-23T06:45:15.982Z,82.97
2017-09-23T06:46:15.950Z,82.53
2017-09-23T06:47:16.034Z,82.34
2017-09-23T06:48:15.905Z,82.43
2017-09-23T06:49:15.892Z,82.72
2017-09-23T06:50:15.868Z,82.06
2017-09-23T06:51:15.865Z,82.06
2017-09-23T06:52:15.938Z,82.43
2017-09-23T06:53:15.864Z,82.15
2017-09-23T06:54:15.841Z,81.90
2017-09-23T06:55:15.813Z,82.09
2017-09-23T06:56:15.775Z,81.62
2017-09-23T06:57:15.775Z,81.58
2017-09-23T06:58:15.741Z,81.48
2017-09-23T06:59:15.767Z,81.90
2017-09-23T07:00:15.725Z,81.81
2017-09-23T07:01:15.743Z,81.81
2017-09-23T07:02:15.704Z,81.62
2017-09-23T07:03:15.678Z,82.09
2017-09-23T07:04:15.631Z,81.43
2017-09-23T07:05:15.608Z,81.24
2017-09-23T07:06:15.593Z,81.04
2017-09-23T07:07:15.679Z,81.43
2017-09-23T07:08:15.562Z,81.43
2017-09-23T07:09:15.566Z,81.62
2017-09-23T07:10:16.181Z,81.52
2017-09-23T07:11:15.505Z,81.04
2017-09-23T07:12:15.480Z,81.52
2017-09-23T07:13:15.530Z,81.33
2017-09-23T07:14:15.467Z,80.85
2017-09-23T07:15:15.448Z,80.76
2017-09-23T07:16:15.430Z,80.80
2017-09-23T07:17:15.404Z,80.99
2017-09-23T07:18:15.379Z,80.32
2017-09-23T07:19:15.367Z,80.04
2017-09-23T07:20:15.357Z,79.69
2017-09-23T07:21:15.342Z,80.07
2017-09-23T07:22:15.312Z,79.50
2017-09-23T07:23:15.329Z,80.17
2017-09-23T07:24:15.324Z,79.69
2017-09-23T07:25:15.279Z,79.69
2017-09-23T07:26:15.248Z,79.22
2017-09-23T07:27:15.225Z,79.41
2017-09-23T07:28:15.256Z,79.12
2017-09-23T07:29:15.190Z,79.54
2017-09-23T07:30:15.187Z,79.06
2017-09-23T07:31:15.167Z,78.68
2017-09-23T07:32:15.159Z,78.58
2017-09-23T07:33:15.205Z,78.39
2017-09-23T07:34:15.153Z,78.39
2017-09-23T07:35:15.094Z,77.76
2017-09-23T07:36:15.078Z,77.57
2017-09-23T07:37:15.072Z,77.82
2017-09-23T07:38:15.038Z,77.86
2017-09-23T07:39:15.019Z,77.95
2017-09-23T07:40:15.031Z,78.05
2017-09-23T07:41:15.022Z,77.95
2017-09-23T07:42:15.033Z,77.86
2017-09-23T07:43:14.961Z,77.48
2017-09-23T07:44:14.949Z,77.09
2017-09-23T07:45:14.938Z,77.42
2017-09-23T07:46:14.918Z,76.75
2017-09-23T07:47:14.896Z,77.23
2017-09-23T07:48:14.908Z,76.98
2017-09-23T07:49:14.871Z,76.40
2017-09-23T07:50:14.856Z,76.21
2017-09-23T07:51:14.834Z,75.68
2017-09-23T07:52:14.830Z,75.39
2017-09-23T07:53:14.806Z,75.10
2017-09-23T07:54:14.795Z,75.10
2017-09-23T07:55:14.799Z,75.01
2017-09-23T07:56:14.828Z,74.95
2017-09-23T07:57:14.748Z,74.43
2017-09-23T07:58:14.788Z,74.57
2017-09-23T07:59:14.702Z,74.57
2017-09-23T08:00:14.685Z,74.51
2017-09-23T08:01:14.738Z,73.93
2017-09-23T08:02:14.663Z,72.18
2017-09-23T08:03:14.645Z,69.85
2017-09-23T08:04:14.628Z,68.38
2017-09-23T08:05:14.602Z,67.10
2017-09-23T08:06:14.589Z,65.30
2017-09-23T08:07:14.590Z,64.11
2017-09-23T08:08:14.563Z,62.18
2017-09-23T08:09:14.545Z,60.69
2017-09-23T08:10:14.549Z,59.50
2017-09-23T08:11:14.543Z,58.27
2017-09-23T08:12:14.514Z,57.23
2017-09-23T08:13:14.491Z,57.23
2017-09-23T08:14:14.485Z,58.01
2017-09-23T08:15:15.017Z,58.78
2017-09-23T08:16:14.444Z,59.33
2017-09-23T08:17:14.427Z,59.43
2017-09-23T08:18:14.435Z,59.86
2017-09-23T08:19:14.408Z,61.66
2017-09-23T08:20:14.386Z,61.92
2017-09-23T08:21:15.625Z,62.34
2017-09-23T08:22:14.377Z,61.11
2017-09-23T08:23:14.420Z,59.72
2017-09-23T08:24:14.331Z,59.07
2017-09-23T08:25:14.318Z,58.14
2017-09-23T08:26:14.305Z,57.32
2017-09-23T08:27:14.303Z,56.45
2017-09-23T08:28:14.289Z,55.63
2017-09-23T08:29:14.267Z,55.04
2017-09-23T08:30:14.249Z,54.22
2017-09-23T08:31:14.248Z,53.28
2017-09-23T08:32:14.236Z,53.59
2017-09-23T08:33:14.214Z,52.82
2017-09-23T08:34:14.200Z,52.23
2017-09-23T08:35:14.184Z,52.36
2017-09-23T08:36:14.185Z,52.19
2017-09-23T08:37:14.173Z,51.51
2017-09-23T08:38:14.180Z,51.02
2017-09-23T08:39:15.721Z,50.65
2017-09-23T08:40:14.126Z,50.36
2017-09-23T08:41:14.116Z,50.85
2017-09-23T08:42:14.096Z,51.14
2017-09-23T08:43:14.100Z,51.61
2017-09-23T08:44:14.089Z,51.53
2017-09-23T08:45:14.067Z,50.95
2017-09-23T08:46:14.047Z,50.29
2017-09-23T08:47:14.072Z,49.56
2017-09-23T08:48:14.034Z,49.00
2017-09-23T08:49:14.025Z,47.66
2017-09-23T08:50:14.002Z,46.14
2017-09-23T08:51:13.994Z,46.16
2017-09-23T08:52:14.004Z,44.91
2017-09-23T08:53:13.971Z,44.73
2017-09-23T08:54:13.961Z,44.46
2017-09-23T08:55:13.947Z,44.37
2017-09-23T08:56:13.943Z,45.03
2017-09-23T08:57:13.937Z,45.28
2017-09-23T08:58:14.009Z,46.33
2017-09-23T08:59:13.899Z,47.48
2017-09-23T09:00:13.887Z,47.48
2017-09-23T09:01:13.887Z,47.19
2017-09-23T09:02:13.872Z,47.36
2017-09-23T09:03:13.857Z,47.95
2017-09-23T09:04:13.852Z,48.22
2017-09-23T09:05:13.848Z,47.27
2017-09-23T09:06:13.836Z,46.62
2017-09-23T09:07:13.827Z,46.04
2017-09-23T09:08:13.920Z,44.81
2017-09-23T09:09:13.804Z,44.54
2017-09-23T09:10:13.826Z,43.38
2017-09-23T09:11:13.796Z,42.82
2017-09-23T09:12:13.813Z,42.45
2017-09-23T09:13:13.793Z,42.70
2017-09-23T09:14:13.938Z,43.46
2017-09-23T09:15:13.762Z,44.23
2017-09-23T09:16:13.768Z,44.42
2017-09-23T09:17:13.756Z,44.13
2017-09-23T09:18:13.760Z,43.76
2017-09-23T09:19:13.746Z,43.09
2017-09-23T09:20:13.762Z,41.86
2017-09-23T09:21:13.762Z,41.98
2017-09-23T09:22:13.743Z,41.39
2017-09-23T09:23:13.739Z,40.92
2017-09-23T09:24:13.734Z,40.25
2017-09-23T09:25:13.727Z,39.78
2017-09-23T09:26:13.792Z,39.86
2017-09-23T09:27:13.715Z,39.88
2017-09-23T09:28:13.723Z,39.76
2017-09-23T09:29:13.733Z,39.95
2017-09-23T09:30:13.719Z,39.88
2017-09-23T09:31:13.726Z,39.48
2017-09-23T09:32:13.741Z,38.62
2017-09-23T09:33:13.709Z,38.42
2017-09-23T09:34:13.711Z,39.01
2017-09-23T09:35:13.708Z,38.52
2017-09-23T09:36:13.830Z,38.44
2017-09-23T09:37:13.700Z,37.87
2017-09-23T09:38:13.701Z,37.49
2017-09-23T09:39:13.723Z,36.92
2017-09-23T09:40:13.702Z,36.53
2017-09-23T09:41:13.708Z,35.96
2017-09-23T09:42:13.698Z,35.66
2017-09-23T09:43:13.697Z,36.13
2017-09-23T09:44:13.712Z,36.45
2017-09-23T09:45:13.700Z,36.35
2017-09-23T09:46:13.726Z,36.23
2017-09-23T09:47:13.727Z,35.86
2017-09-23T09:48:13.707Z,35.48
2017-09-23T09:49:13.701Z,35.66
2017-09-23T09:50:13.702Z,36.05
2017-09-23T09:51:13.897Z,36.05
2017-09-23T09:52:13.699Z,35.76
2017-09-23T09:53:13.721Z,35.76
2017-09-23T09:54:13.710Z,35.66
2017-09-23T09:55:13.708Z,34.99
2017-09-23T09:56:14.542Z,34.41
2017-09-23T09:57:13.712Z,34.49
2017-09-23T09:58:13.725Z,34.79
2017-09-23T09:59:13.704Z,34.61
2017-09-23T10:00:13.712Z,34.72
2017-09-23T10:01:13.704Z,33.44
2017-09-23T10:02:13.718Z,33.94
2017-09-23T10:03:13.828Z,33.44
2017-09-23T10:04:13.733Z,33.06
2017-09-23T10:05:13.723Z,32.98
2017-09-23T10:06:13.727Z,32.21
2017-09-23T10:07:13.724Z,32.60
2017-09-23T10:08:13.724Z,32.10
2017-09-23T10:09:13.744Z,31.81
2017-09-23T10:10:13.733Z,32.21
2017-09-23T10:11:13.735Z,32.65
2017-09-23T10:12:13.721Z,34.28
2017-09-23T10:13:13.724Z,36.08
2017-09-23T10:14:13.778Z,37.23
2017-09-23T10:15:13.739Z,37.68
2017-09-23T10:16:13.736Z,38.54
2017-09-23T10:17:13.749Z,39.29
2017-09-23T10:18:13.760Z,40.03
2017-09-23T10:19:13.742Z,41.05
2017-09-23T10:20:13.751Z,42.22
2017-09-23T10:21:13.759Z,41.54
2017-09-23T10:22:13.731Z,42.09
2017-09-23T10:23:13.765Z,42.65
2017-09-23T10:24:13.735Z,43.71
2017-09-23T10:25:13.743Z,44.34
2017-09-23T10:26:13.737Z,44.59
2017-09-23T10:27:13.741Z,45.74
2017-09-23T10:28:13.733Z,46.08
2017-09-23T10:29:13.729Z,47.03
2017-09-23T10:30:13.756Z,45.81
2017-09-23T10:31:13.945Z,44.30
2017-09-23T10:32:13.726Z,42.51
2017-09-23T10:33:13.732Z,42.22
2017-09-23T10:34:15.113Z,42.12
2017-09-23T10:35:13.774Z,41.54
2017-09-23T10:36:13.703Z,41.15
2017-09-23T10:37:13.701Z,42.18
2017-09-23T10:38:13.744Z,43.21
2017-09-23T10:39:13.703Z,45.01
2017-09-23T10:40:13.869Z,45.65
2017-09-23T10:41:14.670Z,46.79
2017-09-23T10:42:13.746Z,45.94
2017-09-23T10:43:13.687Z,44.45
2017-09-23T10:44:13.669Z,43.30
2017-09-23T10:45:13.676Z,42.65
2017-09-23T10:46:13.691Z,41.05
2017-09-23T10:47:14.021Z,39.23
2017-09-23T10:48:13.652Z,38.45
2017-09-23T10:49:13.673Z,39.31
2017-09-23T10:50:13.666Z,39.23
2017-09-23T10:51:13.669Z,38.28
2017-09-23T10:52:13.643Z,38.65
2017-09-23T10:53:13.664Z,39.22
2017-09-23T10:54:13.660Z,39.78
2017-09-23T10:55:13.654Z,40.73
2017-09-23T10:56:15.777Z,40.45
2017-09-23T10:57:13.631Z,40.64
2017-09-23T10:58:14.259Z,40.25
2017-09-23T10:59:13.737Z,39.22
2017-09-23T11:00:14.618Z,37.41
2017-09-23T11:01:13.642Z,35.81
2017-09-23T11:02:13.640Z,34.36
2017-09-23T11:03:14.436Z,35.22
2017-09-23T11:04:13.610Z,35.24
2017-09-23T11:05:13.599Z,35.14
2017-09-23T11:06:13.641Z,34.94
2017-09-23T11:07:13.606Z,35.04
2017-09-23T11:08:13.588Z,34.49
2017-09-23T11:09:13.634Z,33.62
2017-09-23T11:10:13.597Z,34.39
2017-09-23T11:11:13.601Z,34.47
2017-09-23T11:12:13.654Z,33.44
2017-09-23T11:13:13.623Z,32.12
2017-09-23T11:14:13.585Z,31.54
2017-09-23T11:15:13.664Z,31.09
2017-09-23T11:16:13.597Z,29.53
2017-09-23T11:17:14.455Z,28.88
2017-09-23T11:18:13.576Z,29.35
2017-09-23T11:19:13.582Z,30.97
2017-09-23T11:20:13.590Z,32.28
2017-09-23T11:21:13.592Z,34.10
2017-09-23T11:22:13.588Z,35.81
2017-09-23T11:23:13.603Z,36.75
2017-09-23T11:24:13.637Z,37.79
2017-09-23T11:25:13.567Z,38.45
2017-09-23T11:26:13.563Z,39.10
2017-09-23T11:27:13.584Z,39.47
2017-09-23T11:28:13.575Z,39.12
2017-09-23T11:29:13.591Z,37.12
2017-09-23T11:30:13.552Z,35.14
2017-09-23T11:31:13.569Z,33.23
2017-09-23T11:32:13.840Z,31.71
2017-09-23T11:33:13.704Z,30.56
2017-09-23T11:34:13.572Z,30.46
2017-09-23T11:35:13.567Z,31.50
2017-09-23T11:36:13.570Z,33.39
2017-09-23T11:37:13.566Z,35.19
2017-09-23T11:38:14.461Z,36.91
2017-09-23T11:39:13.558Z,38.42
2017-09-23T11:40:13.549Z,39.45
2017-09-23T11:41:13.573Z,40.78
2017-09-23T11:42:13.539Z,42.19
2017-09-23T11:43:13.533Z,42.74
2017-09-23T11:44:13.559Z,43.49
2017-09-23T11:45:13.560Z,43.98
2017-09-23T11:46:13.560Z,43.86
2017-09-23T11:47:13.550Z,44.23
2017-09-23T11:48:13.538Z,44.51
2017-09-23T11:49:13.525Z,44.78
2017-09-23T11:50:13.589Z,44.59
2017-09-23T11:51:13.511Z,44.67
2017-09-23T11:52:13.508Z,45.03
2017-09-23T11:53:13.493Z,45.13
2017-09-23T11:54:13.535Z,43.57
2017-09-23T11:55:13.498Z,40.56
2017-09-23T11:56:13.486Z,37.23
2017-09-23T11:57:13.481Z,35.06
2017-09-23T11:58:13.476Z,33.15
2017-09-23T11:59:13.518Z,31.83
2017-09-23T12:00:13.456Z,30.22
2017-09-23T12:01:13.728Z,28.88
2017-09-23T12:04:33.818Z,26.79
2017-09-23T12:05:33.881Z,26.51
2017-09-23T12:06:33.868Z,26.04
2017-09-23T12:07:34.421Z,25.48
2017-09-23T12:08:33.770Z,25.29
2017-09-23T12:09:33.636Z,25.01
2017-09-23T12:10:33.670Z,24.44
2017-09-23T12:11:33.426Z,24.25
2017-09-23T12:12:33.447Z,24.35
2017-09-23T12:13:33.421Z,24.54
2017-09-23T12:14:33.427Z,25.12
2017-09-23T12:15:33.430Z,25.40
2017-09-23T12:16:33.457Z,25.60
2017-09-23T12:17:33.450Z,25.67
2017-09-23T12:18:33.472Z,27.22
2017-09-23T12:19:33.440Z,27.86
2017-09-23T12:20:33.448Z,28.64
2017-09-23T12:21:33.443Z,28.54
2017-09-23T12:22:33.429Z,27.96
2017-09-23T12:23:33.431Z,27.00
2017-09-23T12:24:33.438Z,26.43
2017-09-23T12:25:33.439Z,25.74
2017-09-23T12:26:33.476Z,26.90
2017-09-23T12:27:33.459Z,27.95
2017-09-23T12:28:33.441Z,29.66
2017-09-23T12:29:33.465Z,31.57
2017-09-23T12:30:33.521Z,32.99
2017-09-23T12:31:33.451Z,34.21
2017-09-23T12:32:33.459Z,35.92
2017-09-23T12:33:33.489Z,37.13
2017-09-23T12:34:33.446Z,38.46
2017-09-23T12:35:33.467Z,39.51
2017-09-23T12:36:33.458Z,39.96
2017-09-23T12:37:33.449Z,40.52
2017-09-23T12:38:33.455Z,40.72
2017-09-23T12:39:33.596Z,39.59
2017-09-23T12:40:33.498Z,37.70
2017-09-23T12:41:33.519Z,35.98
2017-09-23T12:42:33.430Z,34.67
2017-09-23T12:43:33.428Z,33.05
2017-09-23T12:44:33.430Z,31.24
2017-09-23T12:45:33.423Z,29.62
2017-09-23T12:46:33.420Z,28.96
2017-09-23T12:47:33.431Z,28.00
2017-09-23T12:48:33.428Z,27.81
2017-09-23T12:49:33.424Z,27.81
2017-09-23T12:50:33.435Z,27.81
2017-09-23T12:51:33.444Z,28.68
2017-09-23T12:52:33.425Z,29.91
2017-09-23T12:53:33.418Z,30.39
2017-09-23T12:54:33.459Z,30.30